createdAt,value
2023-08-02T00:00:25.754Z,0.00
2023-08-02T00:01:25.778Z,0.00
2023-08-02T00:02:27.712Z,0.00
2023-08-02T00:04:29.407Z,0.00
2023-08-02T00:05:25.685Z,0.00
2023-08-02T00:06:25.898Z,0.00
2023-08-02T00:07:25.908Z,0.00
2023-08-02T00:08:32.873Z,0.00
2023-08-02T00:09:33.776Z,0.00
2023-08-02T00:10:26.678Z,0.00
2023-08-02T00:11:25.643Z,0.00
2023-08-02T00:12:25.625Z,0.00
2023-08-02T00:13:25.690Z,0.00
2023-08-02T00:14:28.324Z,0.00
2023-08-02T00:15:25.600Z,0.00
2023-08-02T00:16:26.412Z,0.00
2023-08-02T00:17:39.654Z,0.00
2023-08-02T00:18:26.584Z,0.00
2023-08-02T00:19:25.631Z,0.00
2023-08-02T00:20:25.546Z,0.00
2023-08-02T00:21:25.564Z,0.00
2023-08-02T00:22:26.239Z,0.00
2023-08-02T00:23:25.515Z,0.00
2023-08-02T00:24:28.426Z,0.00
2023-08-02T00:25:29.966Z,0.00
2023-08-02T00:26:28.859Z,0.00
2023-08-02T00:27:25.528Z,0.00
2023-08-02T00:28:25.460Z,0.00
2023-08-02T00:29:25.470Z,0.00
2023-08-02T00:30:25.471Z,0.00
2023-08-02T00:31:28.319Z,0.00
2023-08-02T00:32:25.433Z,0.00
2023-08-02T00:33:25.425Z,0.00
2023-08-02T00:34:25.420Z,0.00
2023-08-02T00:35:25.410Z,0.00
2023-08-02T00:36:25.457Z,0.00
2023-08-02T00:37:25.383Z,0.00
2023-08-02T00:38:25.410Z,0.00
2023-08-02T00:39:25.397Z,0.00
2023-08-02T00:40:25.333Z,0.00
2023-08-02T00:41:25.327Z,0.00
2023-08-02T00:42:25.318Z,0.00
2023-08-02T00:43:25.313Z,0.00
2023-08-02T00:44:25.347Z,0.00
2023-08-02T00:45:25.304Z,0.00
2023-08-02T00:46:25.375Z,0.00
2023-08-02T00:47:25.472Z,0.00
2023-08-02T00:48:25.266Z,0.00
2023-08-02T00:49:25.299Z,0.00
2023-08-02T00:50:25.248Z,0.00
2023-08-02T00:51:25.329Z,0.00
2023-08-02T00:52:25.226Z,0.00
2023-08-02T00:53:25.308Z,0.00
2023-08-02T00:54:25.196Z,0.00
2023-08-02T00:55:25.193Z,0.00
2023-08-02T00:56:25.191Z,0.00
2023-08-02T00:57:25.164Z,0.00
2023-08-02T00:58:25.161Z,0.00
2023-08-02T00:59:25.173Z,0.00
2023-08-02T01:00:25.204Z,0.00
2023-08-02T01:01:25.150Z,0.00
2023-08-02T01:02:25.143Z,0.00
2023-08-02T01:03:25.149Z,0.00
2023-08-02T01:04:26.299Z,0.00
2023-08-02T01:05:26.332Z,0.00
2023-08-02T01:06:26.479Z,0.00
2023-08-02T01:07:27.283Z,0.00
2023-08-02T01:08:26.357Z,0.00
2023-08-02T01:09:27.238Z,0.00
2023-08-02T01:10:26.254Z,0.00
2023-08-02T01:11:26.217Z,0.00
2023-08-02T01:12:26.311Z,0.00
2023-08-02T01:13:26.230Z,0.00
2023-08-02T14:47:21.451Z,247.50
2023-08-02T14:47:52.954Z,247.50
2023-08-02T14:48:52.916Z,236.25
2023-08-02T14:49:52.896Z,208.12
2023-08-02T14:50:52.875Z,202.50
2023-08-02T14:51:52.871Z,208.12
2023-08-02T14:52:52.874Z,191.25
2023-08-02T14:54:03.728Z,163.12
2023-08-02T14:54:53.846Z,163.12
2023-08-02T14:55:52.829Z,174.38
2023-08-02T14:56:52.835Z,157.50
2023-08-02T14:57:52.817Z,135.00
2023-08-02T14:58:52.795Z,123.75
2023-08-02T14:59:52.793Z,106.88
2023-08-02T15:00:52.999Z,101.25
2023-08-02T15:01:52.872Z,90.00
2023-08-02T15:02:55.888Z,90.00
2023-08-02T15:03:53.741Z,84.38
2023-08-02T15:04:52.738Z,90.00
2023-08-02T15:05:52.733Z,90.00
2023-08-02T15:06:52.746Z,90.00
2023-08-02T15:07:52.695Z,90.00
2023-08-02T15:08:52.693Z,90.00
2023-08-02T15:09:52.680Z,95.62
2023-08-02T15:10:54.541Z,106.88
2023-08-02T15:11:52.669Z,118.12
2023-08-02T15:12:52.938Z,106.88
2023-08-02T15:13:52.639Z,90.00
2023-08-02T15:14:52.627Z,73.12
2023-08-02T15:15:52.644Z,78.75
2023-08-02T15:16:54.219Z,106.88
2023-08-02T15:17:52.642Z,106.88
2023-08-02T15:18:52.582Z,95.62
2023-08-02T15:19:52.579Z,135.00
2023-08-02T15:20:52.577Z,146.25
2023-08-02T15:21:52.566Z,135.00
2023-08-02T15:22:52.553Z,129.38
2023-08-02T15:23:52.564Z,135.00
2023-08-02T15:24:52.515Z,129.38
2023-08-02T15:25:52.513Z,168.75
2023-08-02T15:26:52.501Z,208.12
2023-08-02T15:27:52.481Z,213.75
2023-08-02T15:28:52.485Z,174.38
2023-08-02T15:29:52.507Z,151.88
2023-08-02T15:30:52.497Z,146.25
2023-08-02T15:31:52.438Z,180.00
2023-08-02T15:32:52.449Z,196.88
2023-08-02T15:33:52.427Z,151.88
2023-08-02T15:34:52.440Z,146.25
2023-08-02T15:35:52.401Z,163.12
2023-08-02T15:36:52.422Z,146.25
2023-08-02T15:37:52.375Z,135.00
2023-08-02T15:38:52.374Z,123.75
2023-08-02T15:39:52.365Z,118.12
2023-08-02T15:40:52.392Z,95.62
2023-08-02T15:41:52.337Z,84.38
2023-08-02T15:42:52.330Z,84.38
2023-08-02T15:43:52.324Z,67.50
2023-08-02T15:44:52.317Z,56.25
2023-08-02T15:45:52.289Z,56.25
2023-08-02T15:46:52.420Z,50.62
2023-08-02T15:47:52.305Z,61.88
2023-08-02T15:48:52.273Z,78.75
2023-08-02T15:49:52.248Z,95.62
2023-08-02T15:50:52.234Z,101.25
2023-08-02T15:51:52.226Z,90.00
2023-08-02T15:52:52.214Z,78.75
2023-08-02T15:53:52.233Z,78.75
2023-08-02T15:54:52.210Z,73.12
2023-08-02T15:55:52.206Z,73.12
2023-08-02T15:56:52.215Z,61.88
2023-08-02T15:57:52.158Z,61.88
2023-08-02T15:58:52.168Z,61.88
2023-08-02T15:59:52.139Z,61.88
2023-08-02T16:00:52.164Z,56.25
2023-08-02T16:01:52.123Z,39.38
2023-08-02T16:02:52.170Z,39.38
2023-08-02T16:03:52.118Z,61.88
2023-08-02T16:04:52.103Z,78.75
2023-08-02T16:05:52.119Z,95.62
2023-08-02T16:06:52.113Z,112.50
2023-08-02T16:07:52.090Z,118.12
2023-08-02T16:08:52.050Z,129.38
2023-08-02T16:09:52.035Z,151.88
2023-08-02T16:10:52.039Z,168.75
2023-08-02T16:11:52.016Z,208.12
2023-08-02T16:12:52.024Z,230.62
2023-08-02T16:13:52.041Z,241.88
2023-08-02T16:14:51.987Z,270.00
2023-08-02T16:15:51.980Z,270.00
2023-08-02T16:16:52.013Z,191.25
2023-08-02T16:17:51.994Z,168.75
2023-08-02T16:18:51.955Z,185.62
2023-08-02T16:19:51.976Z,151.88
2023-08-02T16:20:51.924Z,129.38
2023-08-02T16:21:51.931Z,163.12
2023-08-02T16:22:51.908Z,157.50
2023-08-02T16:23:51.894Z,163.12
2023-08-02T16:24:51.887Z,163.12
2023-08-02T16:25:51.881Z,151.88
2023-08-02T16:26:51.878Z,163.12
2023-08-02T16:27:51.841Z,168.75
2023-08-02T16:28:51.840Z,168.75
2023-08-02T16:29:51.830Z,185.62
2023-08-02T16:30:51.870Z,191.25
2023-08-02T16:31:51.865Z,196.88
2023-08-02T16:32:51.848Z,185.62
2023-08-02T16:33:51.789Z,168.75
2023-08-02T16:34:51.781Z,157.50
2023-08-02T16:35:51.792Z,151.88
2023-08-02T16:36:51.768Z,146.25
2023-08-02T16:37:51.746Z,129.38
2023-08-02T16:38:51.742Z,123.75
2023-08-02T16:39:51.731Z,129.38
2023-08-02T16:40:51.764Z,129.38
2023-08-02T16:41:51.709Z,135.00
2023-08-02T16:42:51.702Z,146.25
2023-08-02T16:43:51.697Z,174.38
2023-08-02T16:44:51.683Z,163.12
2023-08-02T16:45:51.677Z,151.88
2023-08-02T16:46:51.735Z,151.88
2023-08-02T16:47:51.728Z,163.12
2023-08-02T16:50:15.263Z,157.50
2023-08-02T16:50:53.470Z,157.50
2023-08-02T16:51:51.621Z,151.88
2023-08-02T17:18:26.529Z,78.75
2023-08-02T17:21:25.034Z,78.75
2023-08-02T17:22:12.659Z,78.75
2023-08-02T17:23:08.103Z,78.75
2023-08-02T17:31:32.739Z,73.12
